Time;durP1;ratioP1;P1;durP2;ratioP2;P2;SDS_P1;SDS_P2;PMS_P1;PMS_P2;Temp;Humidity;BMP_temperature;BMP_pressure;BME280_temperature;BME280_humidity;BME280_pressure;Samples;Min_cycle;Max_cycle;Signal;HPM_P1;HPM_P2
2021/11/11 00:01:59;;;;;;;3.78;3.60;;;;;;;-0.43;100.00;102052.53;4399309;32;20296;-72
2021/11/11 00:04:25;;;;;;;3.25;3.15;;;;;;;-0.51;100.00;102034.38;4395046;32;20480;-72
2021/11/11 00:06:50;;;;;;;3.85;3.55;;;;;;;-0.41;100.00;102049.12;4385495;32;20073;-72
2021/11/11 00:09:16;;;;;;;3.03;2.85;;;;;;;-1.83;100.00;101821.03;4397364;32;20133;-72
2021/11/11 00:11:42;;;;;;;4.03;3.83;;;;;;;-0.44;100.00;102056.84;4390206;32;20579;-73
2021/11/11 00:14:08;;;;;;;5.28;5.07;;;;;;;-0.46;100.00;102047.31;4383048;32;20440;-72
2021/11/11 00:16:33;;;;;;;2.70;2.60;;;;;;;-0.55;100.00;102035.16;4383108;32;20298;-72
2021/11/11 00:18:58;;;;;;;3.60;3.45;;;;;;;-0.94;100.00;101964.12;4362218;32;20061;-73
2021/11/11 00:21:24;;;;;;;2.60;2.50;;;;;;;-0.42;100.00;102075.78;4395598;32;20083;-72
2021/11/11 00:23:49;;;;;;;2.72;2.62;;;;;;;-0.66;100.00;102008.34;4364610;32;20081;-72
2021/11/11 00:26:15;;;;;;;6.55;6.00;;;;;;;-0.49;100.00;102053.31;4371782;32;20124;-72
2021/11/11 00:28:40;;;;;;;2.70;2.60;;;;;;;-0.53;100.00;102058.41;4381960;32;20166;-72
2021/11/11 00:31:05;;;;;;;4.72;4.35;;;;;;;-0.58;100.00;102049.72;4394854;32;20301;-73
2021/11/11 00:33:31;;;;;;;3.42;3.33;;;;;;;-0.67;100.00;102033.25;4385684;32;20131;-72
2021/11/11 00:35:56;;;;;;;2.67;2.58;;;;;;;-0.66;100.00;102044.44;4381883;32;20360;-72
2021/11/11 00:38:22;;;;;;;3.03;2.92;;;;;;;-0.93;100.00;101996.75;4381468;32;20104;-72
2021/11/11 00:40:47;;;;;;;3.15;3.05;;;;;;;-0.73;100.00;102029.72;4397526;32;20065;-72
2021/11/11 00:43:13;;;;;;;2.97;2.87;;;;;;;-0.75;100.00;102019.38;4382999;32;20092;-73
2021/11/11 00:45:38;;;;;;;2.50;2.40;;;;;;;-1.72;100.00;101860.72;4386993;32;20072;-72
2021/11/11 00:48:07;;;;;;;2.53;2.42;;;;;;;-1.70;100.00;101871.88;4365570;32;20122;-72
2021/11/11 00:50:32;;;;;;;17.23;16.42;;;;;;;-1.23;100.00;101955.91;4316879;32;20337;-73
2021/11/11 00:52:58;;;;;;;3.55;3.40;;;;;;;-1.14;100.00;101957.75;4383068;32;20200;-72
2021/11/11 00:55:24;;;;;;;3.03;2.87;;;;;;;-0.82;100.00;102013.28;4398023;32;20722;-73
2021/11/11 00:57:49;;;;;;;2.80;2.70;;;;;;;-0.83;100.00;102016.69;4378534;32;20064;-72
2021/11/11 01:00:15;;;;;;;3.85;3.72;;;;;;;-1.07;100.00;101973.34;4387272;32;20574;-73
2021/11/11 01:02:41;;;;;;;2.83;2.72;;;;;;;-1.04;100.00;101983.72;4410599;32;20084;-72
2021/11/11 01:05:07;;;;;;;4.78;4.55;;;;;;;-0.89;100.00;102013.16;4394736;32;20462;-73
2021/11/11 01:07:32;;;;;;;2.53;2.42;;;;;;;-0.92;100.00;102008.81;4407835;32;20089;-72
2021/11/11 01:09:57;;;;;;;2.83;2.72;;;;;;;-0.93;100.00;102001.91;4391473;32;20213;-73
2021/11/11 01:12:23;;;;;;;2.80;2.70;;;;;;;-0.94;100.00;102002.78;4394017;32;21149;-73
2021/11/11 01:14:48;;;;;;;2.60;2.50;;;;;;;-0.96;100.00;102009.63;4395700;32;20524;-73
2021/11/11 01:17:13;;;;;;;3.28;3.08;;;;;;;-0.96;100.00;101998.41;4385087;32;20057;-72
2021/11/11 01:19:39;;;;;;;2.60;2.50;;;;;;;-1.25;100.00;101955.87;4381647;32;20142;-73
2021/11/11 01:22:04;;;;;;;4.70;4.50;;;;;;;-1.37;100.00;101929.06;4377194;32;20568;-72
2021/11/11 01:24:30;;;;;;;2.55;2.45;;;;;;;-0.96;100.00;101995.84;4402932;32;20161;-72
2021/11/11 01:26:55;;;;;;;2.90;2.80;;;;;;;-0.97;100.00;101992.41;4390990;32;20086;-72
2021/11/11 01:29:21;;;;;;;2.58;2.47;;;;;;;-1.08;100.00;101969.06;4378423;32;20072;-72
2021/11/11 01:31:46;;;;;;;3.00;2.90;;;;;;;-2.13;100.00;101790.53;4383707;32;20069;-72
2021/11/11 01:34:11;;;;;;;3.58;3.47;;;;;;;-0.93;100.00;101993.34;4382408;32;20095;-73
2021/11/11 01:36:37;;;;;;;2.60;2.50;;;;;;;-0.95;100.00;102011.34;4379347;32;20077;-73
2021/11/11 01:39:04;;;;;;;3.62;3.50;;;;;;;-0.96;100.00;101986.44;4395559;32;20126;-73
2021/11/11 01:41:29;;;;;;;3.87;3.67;;;;;;;-1.41;100.00;101917.84;4385282;32;20061;-72
2021/11/11 01:43:54;;;;;;;3.30;3.15;;;;;;;-1.20;100.00;101961.12;4401836;32;20183;-73
2021/11/11 01:46:20;;;;;;;2.60;2.50;;;;;;;-0.99;100.00;101988.94;4379847;32;20083;-72
2021/11/11 01:48:45;;;;;;;2.58;2.47;;;;;;;-1.02;100.00;101963.16;4388189;32;20111;-72
2021/11/11 01:51:10;;;;;;;4.80;4.50;;;;;;;-0.82;100.00;101991.81;4383212;32;20069;-73
2021/11/11 01:53:36;;;;;;;3.20;3.10;;;;;;;-1.04;100.00;101949.38;4386562;32;20065;-72
2021/11/11 01:56:02;;;;;;;3.35;3.25;;;;;;;-0.91;100.00;101981.34;4395051;32;20574;-74
2021/11/11 01:58:27;;;;;;;2.60;2.50;;;;;;;-1.01;100.00;101975.16;4384420;32;20060;-73
2021/11/11 02:00:55;;;;;;;2.47;2.37;;;;;;;-1.19;100.00;101957.69;4396642;32;20073;-72
2021/11/11 02:03:21;;;;;;;2.60;2.50;;;;;;;-1.46;100.00;101914.34;4383911;32;20070;-73
2021/11/11 02:05:47;;;;;;;2.62;2.53;;;;;;;-1.12;100.00;101981.84;4389708;32;20179;-73
2021/11/11 02:08:12;;;;;;;4.55;4.35;;;;;;;-1.29;100.00;101958.38;4393200;32;20122;-72
2021/11/11 02:10:37;;;;;;;2.60;2.50;;;;;;;-1.31;100.00;101958.34;4392596;32;20782;-73
2021/11/11 02:13:04;;;;;;;3.72;3.60;;;;;;;-1.75;100.00;101878.66;4390574;32;20075;-73
2021/11/11 02:15:29;;;;;;;2.50;2.40;;;;;;;-1.52;100.00;101916.81;4392589;32;20519;-72
2021/11/11 02:17:55;;;;;;;2.47;2.37;;;;;;;-1.34;100.00;101955.75;4381867;32;20673;-73
2021/11/11 02:20:26;;;;;;;2.60;2.50;;;;;;;-1.46;100.00;101960.69;4393288;32;20076;-72
2021/11/11 02:22:52;;;;;;;2.65;2.55;;;;;;;-1.19;100.00;101996.34;4412753;32;20067;-73
2021/11/11 02:25:19;;;;;;;3.78;3.58;;;;;;;-1.23;100.00;101985.09;4374975;32;20178;-72
2021/11/11 02:27:45;;;;;;;2.58;2.47;;;;;;;-1.26;100.00;101974.78;4388285;32;20954;-73
2021/11/11 02:30:12;;;;;;;4.18;3.97;;;;;;;-1.31;100.00;101973.81;4375906;32;20211;-73
2021/11/11 02:32:38;;;;;;;2.80;2.70;;;;;;;-1.68;100.00;101913.09;4407384;32;20162;-73
2021/11/11 02:35:06;;;;;;;4.25;4.05;;;;;;;-1.95;100.00;101877.44;4392154;32;20076;-72
2021/11/11 02:37:31;;;;;;;2.47;2.37;;;;;;;-1.37;100.00;101976.28;4390760;32;20717;-73
2021/11/11 02:39:58;;;;;;;2.65;2.55;;;;;;;-2.74;100.00;101755.13;4390626;32;20180;-74
2021/11/11 02:42:23;;;;;;;2.80;2.70;;;;;;;-1.51;100.00;101967.44;4402619;32;20068;-72
2021/11/11 02:44:49;;;;;;;2.60;2.50;;;;;;;-1.45;100.00;101975.28;4384820;32;20079;-73
2021/11/11 02:47:14;;;;;;;4.35;4.15;;;;;;;-1.47;100.00;101979.53;4384488;32;20154;-72
2021/11/11 02:49:39;;;;;;;2.50;2.40;;;;;;;-1.57;100.00;101969.91;4386282;32;20081;-72
2021/11/11 02:52:06;;;;;;;4.43;4.22;;;;;;;-1.49;100.00;101981.22;4381778;32;20096;-72
2021/11/11 02:54:36;;;;;;;3.22;3.12;;;;;;;-1.50;100.00;101985.50;4405821;32;20073;-73
2021/11/11 02:57:02;;;;;;;3.70;3.55;;;;;;;-2.17;100.00;101887.31;4393907;32;20437;-73
2021/11/11 02:59:27;;;;;;;2.95;2.85;;;;;;;-1.56;100.00;101995.69;4380397;32;20657;-72
2021/11/11 03:01:52;;;;;;;3.00;2.90;;;;;;;-1.59;100.00;101992.19;4399343;32;20563;-72
2021/11/11 03:04:18;;;;;;;2.50;2.40;;;;;;;-1.78;100.00;101955.81;4380250;32;20112;-73
2021/11/11 03:06:43;;;;;;;3.17;2.90;;;;;;;-1.63;100.00;101989.53;4401322;32;20606;-72
2021/11/11 03:09:09;;;;;;;4.37;4.18;;;;;;;-1.65;100.00;101988.63;4388977;32;20053;-72
2021/11/11 03:11:34;;;;;;;2.70;2.60;;;;;;;-1.65;100.00;101992.94;4390455;32;20159;-72
2021/11/11 03:14:00;;;;;;;3.53;3.33;;;;;;;-1.79;100.00;101966.06;4374560;32;20087;-70
2021/11/11 03:16:25;;;;;;;3.55;3.35;;;;;;;-1.67;100.00;101995.47;4392641;32;23418;-72
2021/11/11 03:18:51;;;;;;;2.45;2.35;;;;;;;-1.65;100.00;101986.06;4382264;32;20073;-72
2021/11/11 03:21:16;;;;;;;2.75;2.65;;;;;;;-2.01;100.00;101909.91;4392085;32;21019;-72
2021/11/11 03:23:41;;;;;;;2.28;2.17;;;;;;;-1.47;100.00;101987.25;4381923;32;20431;-72
2021/11/11 03:26:07;;;;;;;3.67;3.58;;;;;;;-1.34;100.00;101986.66;4399001;32;20069;-72
2021/11/11 03:28:32;;;;;;;2.80;2.70;;;;;;;-1.16;100.00;101983.53;4391794;32;20137;-72
2021/11/11 03:30:57;;;;;;;2.78;2.67;;;;;;;-2.18;100.00;101805.88;4396326;32;20110;-72
2021/11/11 03:33:23;;;;;;;2.62;2.53;;;;;;;-2.25;100.00;101806.59;4380569;32;20135;-72
2021/11/11 03:35:48;;;;;;;2.50;2.40;;;;;;;-1.04;100.00;102012.06;4398229;32;20107;-73
2021/11/11 03:38:14;;;;;;;3.85;3.70;;;;;;;-1.62;100.00;101901.19;4398528;32;20459;-72
2021/11/11 03:40:42;;;;;;;2.60;2.50;;;;;;;-1.09;100.00;101980.19;4393693;32;20170;-73
2021/11/11 03:43:08;;;;;;;5.07;4.53;;;;;;;-1.11;100.00;101992.19;4395172;32;20437;-73
2021/11/11 03:45:33;;;;;;;2.40;2.30;;;;;;;-1.17;100.00;101999.81;4390800;32;20538;-73
2021/11/11 03:47:59;;;;;;;3.35;3.25;;;;;;;-1.33;100.00;101972.91;4384952;32;20477;-73
2021/11/11 03:50:24;;;;;;;2.85;2.70;;;;;;;-1.27;100.00;101985.91;4393290;32;20103;-73
2021/11/11 03:52:51;;;;;;;2.40;2.30;;;;;;;-1.70;100.00;101919.94;4375488;32;20077;-73
2021/11/11 03:55:17;;;;;;;3.30;3.10;;;;;;;-1.26;100.00;102005.66;4384208;32;20872;-72
2021/11/11 03:57:43;;;;;;;2.60;2.50;;;;;;;-1.50;100.00;101958.91;4386349;32;20064;-72
2021/11/11 04:00:10;;;;;;;4.45;4.25;;;;;;;-1.48;100.00;101975.25;4366625;32;20064;-72
2021/11/11 04:02:36;;;;;;;2.72;2.62;;;;;;;-1.88;100.00;101899.88;4366052;32;20582;-73
2021/11/11 04:05:01;;;;;;;3.90;3.75;;;;;;;-1.23;100.00;102008.28;4369931;32;20070;-73
2021/11/11 04:07:26;;;;;;;2.40;2.30;;;;;;;-1.22;100.00;102007.47;4373333;32;20634;-73
2021/11/11 04:09:52;;;;;;;3.33;3.12;;;;;;;-2.28;100.00;101832.25;4379324;32;20064;-73
2021/11/11 04:12:17;;;;;;;3.62;3.42;;;;;;;-1.25;100.00;102004.81;4366416;32;20061;-73
2021/11/11 04:14:43;;;;;;;2.60;2.50;;;;;;;-1.25;100.00;101999.66;4384997;32;20088;-73
2021/11/11 04:17:08;;;;;;;4.22;4.03;;;;;;;-1.24;100.00;102003.13;4364030;32;20089;-72
2021/11/11 04:19:34;;;;;;;2.30;2.20;;;;;;;-1.36;100.00;101982.28;4372216;32;20098;-73
2021/11/11 04:21:59;;;;;;;3.67;3.53;;;;;;;-1.35;100.00;101984.91;4359857;32;20092;-73
2021/11/11 04:24:25;;;;;;;2.42;2.33;;;;;;;-1.19;100.00;102021.22;4384738;32;20631;-73
2021/11/11 04:26:57;;;;;;;3.12;3.03;;;;;;;-3.19;100.00;101658.34;4367091;32;20108;-73
2021/11/11 04:29:25;;;;;;;2.53;2.42;;;;;;;-1.35;100.00;101989.19;4382546;32;20724;-73
2021/11/11 04:34:22;;;;;;;2.65;2.55;;;;;;;-1.19;100.00;102019.50;4387843;32;20099;-73
2021/11/11 04:44:32;;;;;;;3.03;2.92;;;;;;;-1.34;100.00;102007.25;4383946;32;20842;-73
2021/11/11 05:05:41;;;;;;;2.60;2.50;;;;;;;-1.56;100.00;102025.69;4386663;32;20325;-73
2021/11/11 05:08:06;;;;;;;5.05;4.75;;;;;;;-1.65;100.00;102011.81;4379495;32;20080;-73
2021/11/11 05:10:32;;;;;;;2.58;2.47;;;;;;;-1.62;100.00;102024.75;4397499;32;20065;-73
2021/11/11 05:12:57;;;;;;;2.35;2.25;;;;;;;-1.65;100.00;102021.25;4393448;32;20073;-73
2021/11/11 05:15:23;;;;;;;2.78;2.67;;;;;;;-1.63;100.00;102015.28;4381705;32;20080;-73
2021/11/11 05:17:48;;;;;;;2.50;2.40;;;;;;;-2.35;100.00;101918.66;4395911;32;20180;-73
2021/11/11 05:20:17;;;;;;;4.47;4.28;;;;;;;-1.72;100.00;102030.56;4378774;32;20108;-73
2021/11/11 05:22:43;;;;;;;2.40;2.30;;;;;;;-1.86;100.00;102016.56;4406252;32;20068;-73
2021/11/11 05:25:09;;;;;;;4.47;4.28;;;;;;;-1.82;100.00;102033.78;4399463;32;20294;-73
2021/11/11 05:27:36;;;;;;;2.40;2.30;;;;;;;-2.42;100.00;101961.38;4391905;32;20515;-73
2021/11/11 05:30:04;;;;;;;3.97;3.78;;;;;;;-1.98;100.00;102044.56;4382472;32;20562;-73
2021/11/11 05:32:30;;;;;;;2.40;2.30;;;;;;;-2.27;100.00;102014.81;4408024;32;20064;-73
2021/11/11 05:34:55;;;;;;;2.85;2.75;;;;;;;-2.16;100.00;102043.37;4393804;32;20194;-73
2021/11/11 05:37:21;;;;;;;4.05;3.85;;;;;;;-2.21;100.00;102068.97;4382431;32;20073;-73
2021/11/11 05:39:46;;;;;;;2.40;2.30;;;;;;;-2.28;100.00;102033.66;4378785;32;20061;-73
2021/11/11 05:42:11;;;;;;;4.28;4.07;;;;;;;-2.16;100.00;102048.50;4391290;32;20103;-73
2021/11/11 05:44:37;;;;;;;2.60;2.50;;;;;;;-2.12;100.00;102050.31;4391598;32;20065;-73
2021/11/11 05:47:02;;;;;;;3.40;3.30;;;;;;;-2.13;100.00;102048.56;4385251;32;20072;-74
2021/11/11 05:49:28;;;;;;;2.40;2.30;;;;;;;-2.13;100.00;102045.97;4381223;32;20139;-72
2021/11/11 05:51:53;;;;;;;2.50;2.40;;;;;;;-3.29;100.00;101861.78;4379364;32;20479;-72
2021/11/11 05:54:18;;;;;;;2.80;2.70;;;;;;;-2.17;100.00;102048.47;4409523;32;20075;-72
2021/11/11 05:56:44;;;;;;;5.30;3.40;;;;;;;-2.18;100.00;102052.75;4395304;32;20662;-72
2021/11/11 05:59:09;;;;;;;4.45;4.25;;;;;;;-2.20;100.00;102046.72;4395659;32;20085;-72
2021/11/11 06:01:35;;;;;;;2.45;2.35;;;;;;;-2.12;100.00;102088.88;4396782;32;20158;-72
2021/11/11 06:04:01;;;;;;;4.80;4.60;;;;;;;-2.29;100.00;102042.19;4404355;32;20621;-71
2021/11/11 06:06:27;;;;;;;2.30;2.20;;;;;;;-2.55;100.00;101971.34;4398821;32;20087;-71
2021/11/11 06:08:52;;;;;;;2.70;2.60;;;;;;;-2.16;100.00;102051.06;4395460;32;20064;-71
2021/11/11 06:11:18;;;;;;;2.78;2.67;;;;;;;-2.37;100.00;102032.59;4382262;32;20110;-71
2021/11/11 06:13:43;;;;;;;2.30;2.20;;;;;;;-2.32;100.00;102049.00;4392394;32;20171;-71
2021/11/11 06:16:08;;;;;;;5.53;5.12;;;;;;;-2.29;100.00;102060.19;4391551;32;20569;-71
2021/11/11 06:18:34;;;;;;;2.85;2.75;;;;;;;-2.43;100.00;102048.75;4396256;32;20095;-71
2021/11/11 06:21:00;;;;;;;3.33;3.20;;;;;;;-2.38;100.00;102064.28;4380432;32;20064;-71
2021/11/11 06:23:26;;;;;;;2.30;2.20;;;;;;;-2.37;100.00;102066.00;4396073;32;20091;-71
2021/11/11 06:25:52;;;;;;;2.40;2.30;;;;;;;-2.35;100.00;102069.50;4379381;32;20171;-71
2021/11/11 06:28:17;;;;;;;3.37;3.28;;;;;;;-2.75;100.00;101986.31;4390945;32;20124;-71
2021/11/11 06:30:43;;;;;;;2.30;2.20;;;;;;;-2.27;100.00;102071.38;4395138;32;20060;-71
2021/11/11 06:33:08;;;;;;;3.85;3.70;;;;;;;-2.26;100.00;102073.16;4379161;32;20597;-71
2021/11/11 06:35:33;;;;;;;2.50;2.40;;;;;;;-2.28;100.00;102055.94;4387955;32;20129;-72
2021/11/11 06:37:59;;;;;;;2.97;2.87;;;;;;;-2.21;100.00;102089.53;4395898;32;20065;-72
2021/11/11 06:40:25;;;;;;;2.95;2.85;;;;;;;-2.23;100.00;102072.34;4378833;32;20091;-72
2021/11/11 06:42:51;;;;;;;2.85;2.75;;;;;;;-2.21;100.00;102076.66;4383676;32;20100;-72
2021/11/11 06:45:18;;;;;;;3.85;3.70;;;;;;;-2.21;100.00;102080.94;4391488;32;20162;-72
2021/11/11 06:47:43;;;;;;;2.20;2.10;;;;;;;-2.45;100.00;102024.69;4400566;32;20590;-73
2021/11/11 06:50:09;;;;;;;4.00;3.80;;;;;;;-2.09;100.00;102077.78;4380252;32;20076;-71
2021/11/11 06:52:35;;;;;;;2.55;2.45;;;;;;;-2.06;100.00;102072.72;4394896;32;20084;-72
2021/11/11 06:55:00;;;;;;;3.45;3.30;;;;;;;-1.99;100.00;102084.88;4383358;32;20131;-72
2021/11/11 06:57:25;;;;;;;2.42;2.33;;;;;;;-1.94;100.00;102106.44;4395764;32;20622;-72
2021/11/11 06:59:51;;;;;;;2.45;2.35;;;;;;;-1.88;100.00;102092.84;4387880;32;20079;-72
2021/11/11 07:02:16;;;;;;;2.92;2.83;;;;;;;-1.88;100.00;102091.13;4393457;32;20598;-71
2021/11/11 07:04:43;;;;;;;2.35;2.25;;;;;;;-2.21;100.00;102035.53;4383595;32;20525;-71
2021/11/11 07:07:08;;;;;;;4.20;4.00;;;;;;;-1.79;100.00;102102.44;4386525;32;20080;-72
2021/11/11 07:09:33;;;;;;;2.20;2.10;;;;;;;-1.73;100.00;102111.16;4396603;32;20064;-72
2021/11/11 07:11:59;;;;;;;3.00;2.87;;;;;;;-1.65;100.00;102107.03;4382564;32;20543;-72
2021/11/11 07:14:24;;;;;;;2.50;2.40;;;;;;;-1.64;100.00;102115.66;4380773;32;20083;-71
2021/11/11 07:16:50;;;;;;;2.50;2.40;;;;;;;-1.54;100.00;102120.16;4382197;32;20650;-71
2021/11/11 07:19:15;;;;;;;3.05;2.95;;;;;;;-1.48;100.00;102124.56;4382486;32;20079;-71
2021/11/11 07:21:40;;;;;;;3.12;2.92;;;;;;;-1.41;100.00;102134.13;4395216;32;20072;-71
2021/11/11 07:24:06;;;;;;;4.45;4.25;;;;;;;-1.73;100.00;102063.97;4378090;32;20152;-71
2021/11/11 07:26:32;;;;;;;2.50;2.40;;;;;;;-1.42;100.00;102107.53;4384619;32;20073;-71
2021/11/11 07:28:57;;;;;;;2.33;2.22;;;;;;;-1.24;100.00;102132.78;4389436;32;20215;-72
2021/11/11 07:31:25;;;;;;;2.95;2.80;;;;;;;-1.19;100.00;102126.84;4393474;32;20624;-72
2021/11/11 07:33:50;;;;;;;2.40;2.30;;;;;;;-1.91;100.00;102026.72;4378434;32;20183;-72
2021/11/11 07:36:16;;;;;;;2.40;2.30;;;;;;;-1.12;100.00;102128.69;4405875;32;20085;-71
2021/11/11 07:38:41;;;;;;;2.17;2.08;;;;;;;-1.60;100.00;102053.09;4398549;32;20052;-71
2021/11/11 07:41:07;;;;;;;3.92;3.75;;;;;;;-0.98;100.00;102136.66;4392420;32;20053;-71
2021/11/11 07:43:32;;;;;;;2.45;2.35;;;;;;;-0.98;100.00;102137.56;4394729;32;20083;-70
2021/11/11 07:46:03;;;;;;;2.35;2.25;;;;;;;-0.92;100.00;102159.97;4410608;32;20077;-72
2021/11/11 07:48:28;;;;;;;2.85;2.75;;;;;;;-2.35;100.00;101902.38;4384185;32;20083;-71
2021/11/11 07:50:54;;;;;;;2.35;2.25;;;;;;;-0.91;100.00;102141.97;4400729;32;20095;-72
2021/11/11 07:53:19;;;;;;;2.60;2.50;;;;;;;-0.88;100.00;102148.87;4377949;32;20069;-72
2021/11/11 07:55:45;;;;;;;2.30;2.20;;;;;;;-0.94;100.00;102141.94;4398795;32;20714;-70
2021/11/11 07:58:11;;;;;;;3.83;3.70;;;;;;;-0.98;100.00;102140.12;4378705;32;20072;-73
2021/11/11 08:00:38;;;;;;;2.67;2.58;;;;;;;-2.19;100.00;101930.12;4398985;32;20061;-72
2021/11/11 08:03:03;;;;;;;4.00;3.83;;;;;;;-1.62;100.00;102026.47;4384030;32;20065;-71
2021/11/11 08:05:29;;;;;;;2.70;2.60;;;;;;;-0.77;100.00;102159.41;4378933;32;20080;-73
2021/11/11 08:07:54;;;;;;;2.60;2.50;;;;;;;-0.69;100.00;102153.53;4386242;32;21079;-73
2021/11/11 08:10:20;;;;;;;2.62;2.53;;;;;;;-0.74;100.00;102133.66;4389963;32;20061;-75
2021/11/11 08:12:45;;;;;;;2.78;2.67;;;;;;;-0.59;100.00;102144.25;4396268;32;20188;-74
2021/11/11 08:15:11;;;;;;;4.20;4.00;;;;;;;-0.53;100.00;102143.50;4393597;32;20069;-75
2021/11/11 08:17:36;;;;;;;2.70;2.60;;;;;;;-0.47;100.00;102149.63;4393362;32;20092;-75
2021/11/11 08:20:03;;;;;;;4.37;4.15;;;;;;;-0.43;100.00;102135.06;4390758;32;20064;-73
2021/11/11 08:22:28;;;;;;;10.27;3.35;;;;;;;-0.29;100.00;102146.47;4380381;32;20151;-75
2021/11/11 08:24:54;;;;;;;2.50;2.40;;;;;;;-0.19;100.00;102144.06;4372899;32;20120;-74
2021/11/11 08:27:20;;;;;;;2.85;2.75;;;;;;;-0.09;100.00;102146.78;4386338;32;20099;-77
2021/11/11 08:29:45;;;;;;;2.60;2.50;;;;;;;-0.02;100.00;102140.00;4376443;32;20100;-74
2021/11/11 08:32:11;;;;;;;3.97;3.80;;;;;;;-0.66;100.00;102021.22;4383527;32;20088;-75
2021/11/11 08:34:38;;;;;;;2.60;2.50;;;;;;;0.11;100.00;102143.62;4397353;32;20065;-71
2021/11/11 08:37:03;;;;;;;4.05;3.85;;;;;;;-0.04;100.00;102119.34;4381876;32;20087;-76
2021/11/11 08:39:29;;;;;;;2.42;2.33;;;;;;;0.07;100.00;102119.47;4390514;32;20064;-73
2021/11/11 08:41:54;;;;;;;3.95;3.67;;;;;;;0.17;100.00;102125.66;4385004;32;20552;-75
2021/11/11 08:44:20;;;;;;;2.85;2.75;;;;;;;0.41;100.00;102148.34;4418834;32;20301;-75
2021/11/11 08:46:47;;;;;;;2.50;2.40;;;;;;;-0.49;100.00;101986.25;4383128;32;20615;-75
2021/11/11 08:49:13;;;;;;;3.97;3.80;;;;;;;0.23;100.00;102087.00;4380901;32;20191;-75
2021/11/11 08:51:39;;;;;;;2.53;2.42;;;;;;;0.65;100.00;102152.97;4401070;32;20169;-73
2021/11/11 08:54:04;;;;;;;4.15;3.95;;;;;;;0.62;100.00;102152.03;4391742;32;20069;-73
2021/11/11 08:56:30;;;;;;;2.85;2.75;;;;;;;-0.08;100.00;102031.53;4394871;32;20076;-74
2021/11/11 08:58:58;;;;;;;2.60;2.50;;;;;;;0.32;100.00;102092.28;4384073;32;20491;-76
2021/11/11 09:01:23;;;;;;;2.60;2.50;;;;;;;-0.45;100.00;101971.72;4397084;32;20092;-75
2021/11/11 09:03:49;;;;;;;2.70;2.60;;;;;;;-0.26;100.00;101990.88;4392569;32;20087;-74
2021/11/11 09:06:14;;;;;;;4.15;3.95;;;;;;;0.12;100.00;102052.44;4376908;32;20087;-73
2021/11/11 09:08:40;;;;;;;2.90;2.80;;;;;;;-0.15;100.00;101991.88;4397802;32;20088;-74
2021/11/11 09:11:05;;;;;;;4.22;4.03;;;;;;;0.93;100.00;102148.13;4378184;32;20150;-74
2021/11/11 09:13:31;;;;;;;2.90;2.80;;;;;;;1.03;100.00;102144.78;4378719;32;20081;-74
2021/11/11 09:15:57;;;;;;;2.80;2.70;;;;;;;0.82;100.00;102116.97;4393777;32;20559;-76
2021/11/11 09:18:23;;;;;;;2.80;2.70;;;;;;;1.18;100.00;102149.22;4400928;32;20341;-74
2021/11/11 09:20:48;;;;;;;2.75;2.65;;;;;;;1.33;100.00;102145.94;4394182;32;20080;-76
2021/11/11 09:23:14;;;;;;;2.97;2.87;;;;;;;0.86;100.00;102066.19;4413087;32;20068;-74
2021/11/11 09:25:39;;;;;;;2.87;2.78;;;;;;;1.19;100.00;102101.84;4378386;32;20069;-74
2021/11/11 09:28:05;;;;;;;4.18;3.97;;;;;;;0.20;100.00;101932.06;4375744;32;20089;-74
2021/11/11 09:30:35;;;;;;;2.65;2.55;;;;;;;1.30;100.00;102089.00;4379175;32;20088;-76
2021/11/11 09:33:01;;;;;;;3.67;3.53;;;;;;;1.14;100.00;102080.22;4378412;32;20092;-73
2021/11/11 09:35:26;;;;;;;2.60;2.50;;;;;;;0.55;100.00;101996.97;4363999;32;20175;-75
2021/11/11 09:37:52;;;;;;;2.95;2.85;;;;;;;1.11;100.00;102114.69;4377606;32;20717;-74
2021/11/11 09:40:20;;;;;;;3.00;2.90;;;;;;;-0.26;100.00;101886.00;4370656;32;20529;-75
2021/11/11 09:42:46;;;;;;;3.47;3.37;;;;;;;0.78;100.00;102042.84;4372121;32;20141;-75
2021/11/11 09:45:13;;;;;;;3.10;3.00;;;;;;;0.75;100.00;102011.81;4361309;32;20085;-74
2021/11/11 09:47:39;;;;;;;3.00;2.90;;;;;;;1.62;100.00;102134.97;4376285;32;20461;-76
2021/11/11 09:50:06;;;;;;;3.97;3.78;;;;;;;1.21;100.00;102068.25;4373849;32;20069;-75
2021/11/11 09:52:32;;;;;;;3.00;2.90;;;;;;;0.65;100.00;101929.91;4371254;32;20104;-76
2021/11/11 10:00:26;;;;;;;3.25;3.15;;;;;;;2.11;100.00;102127.56;4388836;32;20152;-77
2021/11/11 10:02:52;;;;;;;3.00;2.90;;;;;;;1.99;100.00;102100.72;4371624;32;20128;-73
2021/11/11 10:05:18;;;;;;;2.90;2.80;;;;;;;1.86;100.00;102092.88;4377765;32;20441;-74
2021/11/11 10:07:43;;;;;;;3.92;3.78;;;;;;;2.13;100.00;102107.72;4378110;32;20115;-74
2021/11/11 10:10:09;;;;;;;2.75;2.65;;;;;;;2.33;100.00;102132.00;4378322;32;20285;-75
2021/11/11 10:12:34;;;;;;;4.95;4.75;;;;;;;2.22;100.00;102102.56;4364986;32;20069;-74
2021/11/11 10:15:10;;;;;;;2.80;2.70;;;;;;;1.89;100.00;102039.41;4368907;32;21093;-74
2021/11/11 10:17:41;;;;;;;4.20;4.00;;;;;;;2.38;100.00;102124.22;4375941;32;20069;-76
2021/11/11 10:20:07;;;;;;;2.72;2.62;;;;;;;2.27;100.00;102095.69;4369043;32;20539;-73
2021/11/11 10:22:35;;;;;;;4.45;4.25;;;;;;;2.50;100.00;102123.41;4382962;32;20081;-73
2021/11/11 10:25:02;;;;;;;3.35;3.25;;;;;;;2.29;100.00;102086.22;4386772;32;20073;-73
2021/11/11 10:30:05;;;;;;;3.50;3.30;;;;;;;2.68;100.00;102117.44;4388642;32;20481;-73
2021/11/11 10:32:37;;;;;;;4.15;3.95;;;;;;;2.94;100.00;102109.75;4377601;32;20091;-74
2021/11/11 10:35:10;;;;;;;2.70;2.60;;;;;;;2.92;100.00;102103.69;4391292;32;20100;-73
2021/11/11 10:38:03;;;;;;;4.12;3.92;;;;;;;2.92;100.00;102101.94;4372214;32;20134;-73
2021/11/11 10:40:32;;;;;;;2.95;2.85;;;;;;;3.18;100.00;102096.81;4380870;32;21262;-75
2021/11/11 10:42:59;;;;;;;3.53;3.35;;;;;;;2.95;100.00;102039.72;4383418;32;20135;-75
2021/11/11 10:45:29;;;;;;;3.50;3.40;;;;;;;3.24;100.00;102095.94;4365711;32;20674;-78
2021/11/11 10:47:57;;;;;;;3.40;3.30;;;;;;;3.25;100.00;102095.09;4381438;32;20529;-73
2021/11/11 10:50:25;;;;;;;3.30;3.20;;;;;;;1.96;99.92;101872.00;4388413;32;20096;-73
2021/11/11 10:52:52;;;;;;;2.80;2.70;;;;;;;3.27;99.97;102074.31;4363434;32;20095;-73
2021/11/11 10:55:18;;;;;;;3.62;3.45;;;;;;;3.46;99.65;102094.22;4383083;32;20342;-73
2021/11/11 10:57:51;;;;;;;3.50;3.40;;;;;;;3.44;100.00;102077.78;4383549;32;20730;-73
2021/11/11 11:00:16;;;;;;;3.25;3.05;;;;;;;3.82;100.00;102087.25;4392780;32;20093;-73
2021/11/11 11:02:53;;;;;;;4.40;4.20;;;;;;;4.03;100.00;102083.78;4388694;32;20114;-72
2021/11/11 11:05:23;;;;;;;3.30;3.20;;;;;;;3.70;98.92;102040.56;4379417;32;20142;-72
2021/11/11 11:08:17;;;;;;;3.00;2.90;;;;;;;3.77;98.00;102102.00;4381526;32;20085;-72
2021/11/11 11:10:44;;;;;;;4.30;4.10;;;;;;;3.84;98.07;102101.13;4386896;32;20093;-74
2021/11/11 11:13:21;;;;;;;3.25;3.15;;;;;;;3.90;98.07;102092.44;4376028;32;20072;-73
2021/11/11 11:15:52;;;;;;;3.60;3.40;;;;;;;3.65;97.96;102032.78;4384831;32;20069;-74
2021/11/11 11:18:20;;;;;;;4.00;3.80;;;;;;;3.80;97.85;102089.00;4375460;32;20213;-72
2021/11/11 11:20:46;;;;;;;3.28;3.17;;;;;;;3.76;98.24;102095.94;4368638;32;20889;-71
2021/11/11 11:23:14;;;;;;;3.20;3.10;;;;;;;3.87;98.12;102084.66;4379926;32;20082;-73
2021/11/11 11:25:48;;;;;;;4.20;4.00;;;;;;;3.89;98.04;102089.00;4374225;32;20079;-75
2021/11/11 11:28:34;;;;;;;3.12;3.03;;;;;;;3.94;97.86;102097.63;4378263;32;20073;-73
2021/11/11 11:31:01;;;;;;;3.35;3.25;;;;;;;3.79;97.97;102032.75;4378933;32;20180;-75
2021/11/11 11:33:40;;;;;;;3.55;3.42;;;;;;;4.21;98.10;102085.44;4361729;32;20062;-78
2021/11/11 11:36:05;;;;;;;4.20;3.90;;;;;;;3.70;98.01;102004.22;4377006;32;20734;-76
2021/11/11 11:38:37;;;;;;;4.60;4.40;;;;;;;4.05;98.09;102073.34;4363522;32;20066;-74
2021/11/11 11:41:03;;;;;;;3.60;3.40;;;;;;;4.23;98.57;102082.81;4378119;32;20681;-76
2021/11/11 11:43:30;;;;;;;4.72;4.53;;;;;;;4.04;98.10;102067.31;4380767;32;20087;-74
2021/11/11 11:46:15;;;;;;;3.60;3.40;;;;;;;3.79;98.42;102036.22;4393024;32;20965;-74
2021/11/11 11:48:42;;;;;;;4.70;4.50;;;;;;;4.13;98.60;102069.88;4363741;32;20077;-73
2021/11/11 11:51:09;;;;;;;3.33;3.22;;;;;;;4.19;99.23;102062.06;4394025;32;20069;-75
2021/11/11 11:53:41;;;;;;;4.82;4.62;;;;;;;4.32;99.20;102069.81;4356040;32;20603;-73